Time;durP1;ratioP1;P1;durP2;ratioP2;P2;SDS_P1;SDS_P2;PMS_P1;PMS_P2;Temp;Humidity;BMP_temperature;BMP_pressure;BME280_temperature;BME280_humidity;BME280_pressure;Samples;Min_cycle;Max_cycle;Signal;HPM_P1;HPM_P2
2023/06/27 00:02:36;;;;;;;10.40;7.10;;;;;;;21.01;70.29;98390.39;137402;1274;22289;-85
2023/06/27 00:05:39;;;;;;;9.60;7.40;;;;;;;21.29;70.15;98392.35;137321;1274;22650;-85
2023/06/27 00:08:45;;;;;;;10.10;6.60;;;;;;;21.44;70.15;98393.55;137341;1274;22253;-83
2023/06/27 00:11:47;;;;;;;7.20;6.40;;;;;;;21.54;70.56;98393.15;137408;1274;22866;-84
2023/06/27 00:14:50;;;;;;;10.20;7.20;;;;;;;21.77;70.36;98389.43;137322;1274;22211;-84
2023/06/27 00:17:53;;;;;;;8.00;6.20;;;;;;;21.95;70.13;98390.83;137269;1274;22180;-83
2023/06/27 00:20:56;;;;;;;12.30;6.20;;;;;;;21.98;69.85;98395.83;137316;1274;22046;-83
2023/06/27 00:23:59;;;;;;;5.80;5.20;;;;;;;21.88;70.37;98403.66;137346;1274;22774;-84
2023/06/27 00:27:01;;;;;;;6.70;5.40;;;;;;;21.54;71.02;98411.91;137367;1274;22193;-83
2023/06/27 00:30:03;;;;;;;5.90;5.00;;;;;;;21.07;73.16;98408.77;137499;1274;22263;-82
2023/06/27 00:33:06;;;;;;;10.00;7.80;;;;;;;21.00;74.92;98398.58;137511;1275;22119;-82
2023/06/27 00:36:09;;;;;;;11.00;9.40;;;;;;;21.14;75.22;98394.86;137524;1275;22393;-84
2023/06/27 00:39:12;;;;;;;10.20;8.30;;;;;;;21.33;75.00;98390.95;137560;1275;22021;-81
2023/06/27 00:42:14;;;;;;;9.90;8.60;;;;;;;21.66;74.77;98386.70;137562;1275;22279;-81
2023/06/27 00:45:17;;;;;;;7.20;5.90;;;;;;;21.82;74.13;98378.75;137526;1274;22217;-82
2023/06/27 00:48:20;;;;;;;6.30;5.80;;;;;;;22.06;73.83;98370.34;137548;1274;22048;-83
2023/06/27 00:51:22;;;;;;;6.70;5.60;;;;;;;22.26;73.12;98357.48;137310;1274;202314;-83
2023/06/27 00:54:25;;;;;;;22.30;7.30;;;;;;;22.42;72.89;98355.88;137475;1275;22220;-84
2023/06/27 00:57:27;;;;;;;11.80;5.60;;;;;;;22.49;71.86;98357.20;137478;1275;22247;-85
2023/06/27 01:00:30;;;;;;;8.40;5.30;;;;;;;22.17;73.65;98356.76;137458;1274;22070;-84
2023/06/27 01:03:33;;;;;;;9.60;6.00;;;;;;;22.28;74.62;98356.16;137411;1274;22785;-84
2023/06/27 01:06:35;;;;;;;5.70;5.30;;;;;;;22.41;74.17;98355.56;137474;1267;22249;-84
2023/06/27 01:09:38;;;;;;;5.90;5.40;;;;;;;22.47;74.07;98357.27;137444;1274;22093;-83
2023/06/27 01:12:41;;;;;;;6.60;5.30;;;;;;;22.57;73.63;98363.23;137468;1274;22055;-84
2023/06/27 01:15:44;;;;;;;9.50;5.40;;;;;;;22.67;73.37;98371.46;137473;1274;22058;-83
2023/06/27 01:18:46;;;;;;;7.70;5.90;;;;;;;22.66;72.96;98368.86;137428;1275;22043;-83
2023/06/27 01:21:50;;;;;;;8.60;5.20;;;;;;;22.66;72.69;98369.04;137479;1274;22224;-83
2023/06/27 01:24:53;;;;;;;;;;;;;;;22.76;72.69;98367.88;137494;1275;22867;-83
2023/06/27 01:27:55;;;;;;;5.70;5.10;;;;;;;22.71;71.92;98363.29;137480;1274;22076;-82
2023/06/27 01:30:58;;;;;;;6.30;5.70;;;;;;;22.56;72.60;98361.14;137476;1274;22291;-84
2023/06/27 01:34:01;;;;;;;8.10;5.90;;;;;;;22.44;73.06;98360.57;137457;1274;22286;-84
2023/06/27 01:37:03;;;;;;;7.00;5.30;;;;;;;22.42;73.30;98358.72;137436;1275;22090;-84
2023/06/27 01:40:07;;;;;;;5.70;5.20;;;;;;;22.32;73.88;98355.44;137454;1274;22489;-84
2023/06/27 01:43:09;;;;;;;8.30;5.70;;;;;;;22.39;73.68;98355.16;137460;1274;22302;-84
2023/06/27 01:46:12;;;;;;;9.70;6.00;;;;;;;22.23;74.00;98350.33;137464;1274;22216;-83
2023/06/27 01:49:14;;;;;;;13.50;6.20;;;;;;;22.12;74.51;98350.29;137453;1274;22404;-83
2023/06/27 01:52:19;;;;;;;10.60;6.30;;;;;;;22.10;74.89;98351.60;137468;1275;22104;-84
2023/06/27 01:55:21;;;;;;;7.70;5.80;;;;;;;22.09;75.31;98351.27;137474;1274;22059;-83
2023/06/27 01:58:24;;;;;;;8.30;6.00;;;;;;;22.02;75.35;98346.79;137432;1275;22051;-83
2023/06/27 02:01:26;;;;;;;6.00;5.40;;;;;;;21.96;75.99;98347.56;137440;1274;22043;-83
2023/06/27 02:04:29;;;;;;;11.90;6.30;;;;;;;21.88;75.97;98353.55;137468;1274;22467;-85
2023/06/27 02:07:31;;;;;;;12.30;6.30;;;;;;;21.72;76.74;98349.60;137498;1274;22234;-84
2023/06/27 02:10:33;;;;;;;7.30;6.50;;;;;;;21.62;77.73;98349.64;137439;1271;22048;-80
2023/06/27 02:13:36;;;;;;;10.80;6.90;;;;;;;21.41;76.70;98339.14;137410;1275;22103;-81
2023/06/27 02:16:38;;;;;;;9.80;7.60;;;;;;;20.63;78.63;98333.96;137436;1274;22204;-83
2023/06/27 02:19:41;;;;;;;12.10;7.50;;;;;;;20.00;81.21;98325.03;137457;1272;22126;-82
2023/06/27 02:22:43;;;;;;;7.70;6.90;;;;;;;19.62;84.26;98318.88;137418;1274;22162;-82
2023/06/27 02:25:46;;;;;;;11.10;7.10;;;;;;;19.25;87.64;98326.73;137418;1275;22283;-81
2023/06/27 02:28:48;;;;;;;15.00;6.80;;;;;;;18.94;91.30;98320.77;137450;1274;22057;-82
2023/06/27 02:31:50;;;;;;;8.40;7.30;;;;;;;18.74;96.74;98312.02;137461;1275;22470;-82
2023/06/27 02:34:53;;;;;;;10.00;7.20;;;;;;;18.55;100.00;98329.48;137432;1274;22477;-82
2023/06/27 02:37:55;;;;;;;9.70;7.90;;;;;;;18.40;100.00;98330.77;137451;1274;22103;-81
2023/06/27 02:40:58;;;;;;;8.70;7.80;;;;;;;18.30;100.00;98335.63;137464;1274;22304;-83
2023/06/27 02:44:04;;;;;;;8.30;7.50;;;;;;;18.22;100.00;98332.31;137501;1274;22081;-83
2023/06/27 02:47:07;;;;;;;10.50;8.20;;;;;;;18.17;100.00;98332.41;137440;1275;22058;-84
2023/06/27 02:50:09;;;;;;;9.30;7.40;;;;;;;18.12;100.00;98330.98;137520;1275;22053;-82
2023/06/27 02:53:12;;;;;;;9.30;8.20;;;;;;;18.10;100.00;98329.96;137466;1274;22109;-82
2023/06/27 02:56:15;;;;;;;9.90;8.00;;;;;;;18.09;100.00;98331.41;137483;1274;22043;-83
2023/06/27 02:59:17;;;;;;;8.70;7.90;;;;;;;18.08;100.00;98332.65;137449;1274;22178;-82
2023/06/27 03:02:20;;;;;;;12.90;7.70;;;;;;;18.07;100.00;98336.75;137434;1274;22027;-83
2023/06/27 03:05:23;;;;;;;10.70;8.00;;;;;;;18.05;100.00;98338.04;137492;1274;22025;-82
2023/06/27 03:08:26;;;;;;;11.30;8.80;;;;;;;18.01;100.00;98345.33;137444;1274;22036;-83
2023/06/27 03:11:28;;;;;;;9.10;8.20;;;;;;;18.00;100.00;98337.82;137493;1275;22098;-83
2023/06/27 03:14:31;;;;;;;9.40;8.20;;;;;;;17.99;100.00;98342.40;137437;1275;22592;-82
2023/06/27 03:17:33;;;;;;;17.90;13.10;;;;;;;17.98;100.00;98354.77;137421;1275;22062;-82
2023/06/27 03:20:36;;;;;;;14.20;12.00;;;;;;;17.94;100.00;98351.87;137473;1275;22202;-81
2023/06/27 03:23:38;;;;;;;10.20;9.20;;;;;;;17.95;100.00;98350.98;137415;1274;22082;-82
2023/06/27 03:26:41;;;;;;;11.90;9.80;;;;;;;17.96;100.00;98352.16;137490;1275;22225;-82
2023/06/27 03:29:44;;;;;;;11.50;10.50;;;;;;;17.93;100.00;98352.78;137471;1274;22131;-81
2023/06/27 03:32:46;;;;;;;11.20;8.60;;;;;;;17.92;100.00;98348.22;137435;1268;22577;-82
2023/06/27 03:35:49;;;;;;;9.70;8.70;;;;;;;17.90;100.00;98347.04;137415;1275;22185;-82
2023/06/27 03:38:51;;;;;;;11.10;9.20;;;;;;;17.92;100.00;98347.89;137439;1274;22154;-81
2023/06/27 03:41:54;;;;;;;9.90;8.80;;;;;;;17.95;100.00;98348.85;137408;1274;22596;-83
2023/06/27 03:44:59;;;;;;;12.90;10.00;;;;;;;18.05;100.00;98351.06;137382;1274;22281;-82
2023/06/27 03:48:03;;;;;;;16.90;10.70;;;;;;;19.10;100.00;98347.45;137351;1274;22727;-82
2023/06/27 03:51:07;;;;;;;12.90;11.00;;;;;;;20.17;100.00;98345.12;137380;1274;22099;-81
2023/06/27 03:54:09;;;;;;;10.80;9.20;;;;;;;20.77;100.00;98343.16;137374;1274;22876;-80
2023/06/27 03:57:12;;;;;;;14.90;11.80;;;;;;;21.15;100.00;98345.29;137359;1274;22273;-81
2023/06/27 04:00:14;;;;;;;12.30;11.20;;;;;;;20.74;100.00;98357.08;137343;1275;22878;-81
2023/06/27 04:03:17;;;;;;;18.20;16.60;;;;;;;20.09;100.00;98368.87;137324;1274;22574;-81
2023/06/27 04:06:20;;;;;;;16.20;14.50;;;;;;;19.68;100.00;98368.45;137365;1275;22171;-81
2023/06/27 04:09:22;;;;;;;15.10;13.10;;;;;;;19.35;100.00;98369.99;137439;1274;22028;-80
2023/06/27 04:12:25;;;;;;;18.30;16.30;;;;;;;19.07;100.00;98368.55;137424;1274;22608;-81
2023/06/27 04:15:27;;;;;;;16.20;14.60;;;;;;;18.86;100.00;98365.62;137399;1274;22203;-80
2023/06/27 04:18:30;;;;;;;13.50;12.10;;;;;;;18.78;100.00;98364.44;137425;1275;22190;-81
2023/06/27 04:21:33;;;;;;;11.20;10.10;;;;;;;18.71;100.00;98366.77;137375;1275;22211;-81
2023/06/27 04:24:36;;;;;;;12.00;10.70;;;;;;;18.64;100.00;98362.37;137371;1275;22183;-81
2023/06/27 04:27:38;;;;;;;12.00;10.50;;;;;;;18.62;100.00;98362.95;137456;1275;22579;-79
2023/06/27 04:30:41;;;;;;;11.90;10.70;;;;;;;18.59;100.00;98365.47;137450;1274;22264;-81
2023/06/27 04:33:43;;;;;;;10.20;9.20;;;;;;;18.55;100.00;98359.77;137407;1274;22319;-80
2023/06/27 04:36:50;;;;;;;10.90;9.80;;;;;;;18.55;100.00;98359.07;137342;1274;22143;-80
2023/06/27 04:39:53;;;;;;;11.30;10.20;;;;;;;18.49;100.00;98364.70;137343;1274;22097;-81
2023/06/27 04:42:56;;;;;;;11.00;10.00;;;;;;;18.43;100.00;98363.63;137391;1268;22160;-81
2023/06/27 04:45:58;;;;;;;13.10;10.10;;;;;;;18.37;100.00;98366.98;137316;1275;22150;-81
2023/06/27 04:49:02;;;;;;;13.60;11.00;;;;;;;18.33;100.00;98362.66;137414;1275;22542;-81
2023/06/27 04:52:04;;;;;;;13.30;9.90;;;;;;;18.32;100.00;98364.98;137456;1274;22182;-81
2023/06/27 04:55:07;;;;;;;11.90;10.40;;;;;;;18.26;100.00;98367.95;137465;1275;22110;-81
2023/06/27 04:58:09;;;;;;;11.30;10.20;;;;;;;18.22;100.00;98365.42;137444;1274;22111;-80
2023/06/27 05:01:12;;;;;;;14.10;9.50;;;;;;;18.21;100.00;98367.74;137028;1275;22127;-80
2023/06/27 05:07:49;;;;;;;41.60;12.30;;;;;;;18.54;100.00;98364.92;133044;1304;544773;-82
2023/06/27 05:10:54;;;;;;;25.80;10.80;;;;;;;18.86;100.00;98375.14;136192;1288;22336;-85
2023/06/27 05:13:57;;;;;;;13.50;8.10;;;;;;;19.02;100.00;98376.09;135700;1288;22597;-84
2023/06/27 05:17:00;;;;;;;14.50;9.10;;;;;;;19.07;100.00;98383.55;136986;1276;22876;-84
2023/06/27 05:20:04;;;;;;;12.00;8.40;;;;;;;19.05;100.00;98385.16;137069;1274;256487;-83
2023/06/27 05:23:06;;;;;;;10.80;8.00;;;;;;;18.85;100.00;98391.20;137176;1274;22980;-84
2023/06/27 05:26:09;;;;;;;8.90;6.90;;;;;;;18.66;100.00;98393.31;137061;1274;22595;-84
2023/06/27 05:29:12;;;;;;;16.50;9.30;;;;;;;18.58;100.00;98401.09;137435;1274;22226;-84
2023/06/27 05:32:14;;;;;;;11.80;8.40;;;;;;;18.57;100.00;98402.19;137413;1273;22349;-84
2023/06/27 05:35:18;;;;;;;14.00;7.20;;;;;;;18.64;100.00;98406.23;137261;1273;22252;-85
2023/06/27 05:38:20;;;;;;;7.20;6.40;;;;;;;18.78;100.00;98416.98;137322;1260;22310;-83
2023/06/27 05:41:23;;;;;;;12.60;7.00;;;;;;;19.04;100.00;98413.61;137430;1274;22208;-85
2023/06/27 05:44:26;;;;;;;13.00;7.00;;;;;;;19.11;100.00;98422.75;137424;1273;22176;-81
2023/06/27 05:47:28;;;;;;;12.80;6.60;;;;;;;19.03;100.00;98425.77;137350;1267;22206;-81
2023/06/27 05:50:31;;;;;;;12.90;7.30;;;;;;;18.92;100.00;98426.08;137365;1274;22253;-81
2023/06/27 05:53:33;;;;;;;11.90;6.90;;;;;;;18.86;100.00;98424.86;137361;1274;22373;-80
2023/06/27 05:56:36;;;;;;;12.40;6.10;;;;;;;18.81;100.00;98428.50;137393;1273;22685;-82
2023/06/27 05:59:38;;;;;;;10.60;6.30;;;;;;;18.67;100.00;98430.13;137433;1273;22237;-82
2023/06/27 06:02:40;;;;;;;13.10;5.80;;;;;;;18.56;100.00;98433.22;137441;1264;22202;-81
2023/06/27 06:05:47;;;;;;;16.60;6.20;;;;;;;18.53;100.00;98430.30;137347;1274;22268;-81
2023/06/27 06:08:49;;;;;;;21.50;9.50;;;;;;;18.45;100.00;98426.65;137444;1270;22205;-83
2023/06/27 06:11:52;;;;;;;14.00;6.60;;;;;;;18.54;100.00;98432.41;137397;1274;22166;-83
2023/06/27 06:14:54;;;;;;;17.40;5.40;;;;;;;18.76;100.00;98438.00;137336;1274;22268;-82
2023/06/27 06:17:57;;;;;;;11.90;4.70;;;;;;;18.94;100.00;98434.67;137402;1274;22262;-82
2023/06/27 06:21:00;;;;;;;15.50;5.90;;;;;;;19.10;100.00;98442.54;137457;1270;22360;-82
2023/06/27 06:24:03;;;;;;;12.80;6.60;;;;;;;19.28;100.00;98441.13;137426;1274;22260;-83
2023/06/27 06:27:06;;;;;;;14.10;7.80;;;;;;;19.31;100.00;98451.09;137373;1274;22413;-82
2023/06/27 06:30:11;;;;;;;8.40;6.70;;;;;;;19.28;100.00;98454.73;137324;1274;22181;-83
2023/06/27 06:33:14;;;;;;;11.10;6.60;;;;;;;19.25;100.00;98451.09;137370;1274;22226;-81
2023/06/27 06:36:18;;;;;;;10.60;7.20;;;;;;;19.33;100.00;98454.36;137357;1274;22216;-84
2023/06/27 06:39:21;;;;;;;16.50;5.80;;;;;;;19.29;100.00;98461.23;137380;1274;22265;-83
2023/06/27 06:42:24;;;;;;;7.90;4.50;;;;;;;19.12;100.00;98470.35;137321;1274;22216;-83
2023/06/27 06:45:27;;;;;;;11.40;5.00;;;;;;;19.06;100.00;98463.61;137298;1273;22261;-82
2023/06/27 06:48:29;;;;;;;8.80;6.10;;;;;;;19.15;100.00;98473.80;137289;1274;22213;-84
2023/06/27 06:51:32;;;;;;;18.60;7.90;;;;;;;19.33;100.00;98478.73;137314;1274;22311;-84
2023/06/27 06:54:35;;;;;;;14.50;6.90;;;;;;;19.35;100.00;98482.20;137305;1274;22331;-83
2023/06/27 06:57:38;;;;;;;17.10;6.60;;;;;;;19.42;100.00;98485.88;137290;1274;22270;-83
2023/06/27 07:00:41;;;;;;;11.30;6.10;;;;;;;19.40;100.00;98487.02;137418;1274;22907;-82
2023/06/27 07:03:44;;;;;;;10.50;5.70;;;;;;;19.57;100.00;98471.87;137367;1273;22267;-83
2023/06/27 07:06:48;;;;;;;11.60;6.20;;;;;;;19.79;100.00;98472.42;137340;1274;22607;-83
2023/06/27 07:09:51;;;;;;;;;;;;;;;19.96;100.00;98465.55;137342;1274;22426;-84
2023/06/27 07:12:54;;;;;;;8.30;5.40;;;;;;;20.08;100.00;98478.79;137363;1274;22363;-83
2023/06/27 07:15:56;;;;;;;13.90;6.30;;;;;;;20.13;100.00;98472.10;137349;1274;22212;-84
2023/06/27 07:18:59;;;;;;;17.90;5.20;;;;;;;20.19;100.00;98480.38;137369;1274;22211;-84
2023/06/27 07:22:01;;;;;;;7.60;3.90;;;;;;;19.99;100.00;98486.30;137327;1274;22273;-81
2023/06/27 07:25:04;;;;;;;12.20;3.70;;;;;;;19.89;100.00;98496.30;137316;1274;22172;-81
2023/06/27 07:28:06;;;;;;;6.30;3.30;;;;;;;19.98;100.00;98484.77;137314;1274;22238;-82
2023/06/27 07:31:09;;;;;;;7.00;3.50;;;;;;;20.01;100.00;98493.84;137374;1274;22358;-81
2023/06/27 07:34:11;;;;;;;8.90;3.70;;;;;;;20.00;100.00;98485.73;137373;1270;22278;-80
2023/06/27 07:37:14;;;;;;;8.10;3.40;;;;;;;20.23;100.00;98496.48;137350;1274;22233;-81
2023/06/27 07:40:16;;;;;;;9.70;3.80;;;;;;;20.49;100.00;98495.83;137331;1274;22296;-80
2023/06/27 07:43:19;;;;;;;9.40;3.80;;;;;;;20.82;100.00;98502.13;137264;1274;22772;-81
2023/06/27 07:46:22;;;;;;;7.50;3.20;;;;;;;20.97;100.00;98487.13;137294;1274;22948;-81
2023/06/27 07:49:24;;;;;;;10.00;3.60;;;;;;;21.01;100.00;98482.39;137259;1274;22338;-81
2023/06/27 07:52:27;;;;;;;8.30;3.30;;;;;;;20.94;100.00;98483.67;137327;1274;22323;-81
2023/06/27 07:55:30;;;;;;;6.50;2.90;;;;;;;20.83;100.00;98479.46;136373;1274;22530;-81
2023/06/27 07:58:32;;;;;;;8.40;3.30;;;;;;;20.89;100.00;98475.38;136758;1274;22280;-81
2023/06/27 08:01:35;;;;;;;9.00;3.50;;;;;;;20.94;100.00;98472.54;137391;1274;22239;-81
2023/06/27 08:04:38;;;;;;;7.50;3.60;;;;;;;21.00;100.00;98486.29;137367;1274;22581;-81
2023/06/27 08:07:40;;;;;;;5.60;2.60;;;;;;;21.18;100.00;98479.11;137389;1274;22293;-81
2023/06/27 08:10:43;;;;;;;7.00;3.20;;;;;;;21.47;100.00;98488.50;137385;1273;22346;-80
2023/06/27 08:13:45;;;;;;;6.00;2.50;;;;;;;21.73;68.94;98489.98;137432;1274;22266;-81
2023/06/27 08:16:48;;;;;;;7.90;2.60;;;;;;;21.77;58.30;98502.45;137315;1274;22258;-81
2023/06/27 08:19:50;;;;;;;9.90;3.20;;;;;;;21.53;57.14;98495.00;137333;1274;22240;-80
2023/06/27 08:22:53;;;;;;;6.30;2.30;;;;;;;21.39;56.97;98497.64;137323;1274;22306;-80
2023/06/27 08:25:56;;;;;;;6.30;2.50;;;;;;;21.37;56.82;98497.02;137329;1274;22353;-81
2023/06/27 08:28:58;;;;;;;9.50;2.90;;;;;;;21.32;58.09;98506.05;137331;1274;22275;-81
2023/06/27 08:32:01;;;;;;;3.50;2.40;;;;;;;21.25;59.72;98499.75;137293;1274;22262;-80
2023/06/27 08:35:05;;;;;;;10.80;3.30;;;;;;;21.20;60.52;98502.22;137335;1274;23096;-81
2023/06/27 08:38:09;;;;;;;8.00;3.00;;;;;;;21.22;60.32;98503.40;137319;1274;22269;-80
2023/06/27 08:41:12;;;;;;;8.80;3.30;;;;;;;21.10;60.90;98510.20;137290;1274;22560;-81
2023/06/27 08:44:15;;;;;;;6.70;3.00;;;;;;;20.94;60.79;98513.21;137319;1270;22267;-81
2023/06/27 08:47:17;;;;;;;12.90;4.20;;;;;;;20.82;61.19;98515.75;137357;1274;22234;-81
2023/06/27 08:50:21;;;;;;;9.00;4.00;;;;;;;20.80;61.81;98510.68;137380;1274;22266;-79
2023/06/27 08:53:23;;;;;;;14.70;4.50;;;;;;;21.17;62.14;98507.80;137316;1274;22634;-82
2023/06/27 08:56:26;;;;;;;5.20;3.20;;;;;;;21.54;62.07;98505.41;137357;1274;22246;-81
2023/06/27 08:59:28;;;;;;;9.40;3.20;;;;;;;21.52;61.54;98509.88;137337;1273;22321;-80
2023/06/27 09:02:31;;;;;;;6.30;3.20;;;;;;;21.43;61.23;98513.45;137362;1273;22205;-81
2023/06/27 09:05:33;;;;;;;6.50;3.30;;;;;;;21.29;62.12;98515.73;137366;1274;22789;-82
2023/06/27 09:08:36;;;;;;;8.00;4.30;;;;;;;21.20;61.63;98516.90;137296;1274;22784;-84
2023/06/27 09:11:40;;;;;;;11.20;3.60;;;;;;;21.23;62.23;98519.64;137392;1274;22179;-84
2023/06/27 09:14:42;;;;;;;11.90;3.30;;;;;;;21.28;62.03;98516.30;137370;1274;22330;-85
2023/06/27 09:17:45;;;;;;;11.50;3.40;;;;;;;21.29;62.23;98512.68;137282;1267;22256;-84
2023/06/27 09:20:47;;;;;;;6.50;3.50;;;;;;;21.42;61.59;98511.17;136957;1274;22547;-84
2023/06/27 09:23:50;;;;;;;11.00;3.20;;;;;;;21.37;60.40;98514.73;137215;1274;22261;-86
2023/06/27 09:26:53;;;;;;;8.40;3.70;;;;;;;21.43;60.44;98513.59;137381;1274;22266;-84
2023/06/27 09:29:56;;;;;;;7.60;4.00;;;;;;;21.22;60.20;98515.42;137401;1265;22169;-84
2023/06/27 09:32:58;;;;;;;10.60;3.70;;;;;;;21.27;60.04;98524.64;137179;1274;23236;-84
2023/06/27 09:36:01;;;;;;;9.60;3.00;;;;;;;21.49;58.00;98522.23;137078;1274;22792;-82
2023/06/27 09:39:04;;;;;;;9.40;3.10;;;;;;;21.45;56.41;98530.36;137375;1274;22201;-82
2023/06/27 09:42:07;;;;;;;4.80;2.70;;;;;;;21.73;57.65;98523.12;137437;1274;22246;-83
2023/06/27 09:45:10;;;;;;;6.30;3.20;;;;;;;22.02;57.17;98520.59;137420;1274;22192;-84
2023/06/27 09:48:16;;;;;;;5.50;2.50;;;;;;;21.82;56.78;98523.50;137453;1274;22245;-82
2023/06/27 09:51:18;;;;;;;8.80;3.20;;;;;;;21.91;56.23;98533.76;137476;1274;22179;-85
2023/06/27 09:54:21;;;;;;;7.30;2.80;;;;;;;22.24;54.47;98532.11;137439;1273;22196;-84
2023/06/27 09:57:25;;;;;;;7.30;2.50;;;;;;;22.45;53.13;98530.39;137393;1274;22151;-83
2023/06/27 10:00:28;;;;;;;9.30;3.00;;;;;;;22.64;53.64;98531.95;137183;1274;22569;-85
2023/06/27 10:03:31;;;;;;;;;;;;;;;22.78;51.87;98535.79;137274;1274;23230;-84
2023/06/27 10:06:34;;;;;;;5.20;3.00;;;;;;;22.77;50.75;98530.88;137162;1274;23461;-86
2023/06/27 10:09:37;;;;;;;4.00;2.40;;;;;;;22.79;50.92;98526.67;137231;1274;22797;-85
2023/06/27 10:12:40;;;;;;;10.30;2.70;;;;;;;22.65;49.27;98527.79;137353;1262;22190;-84
2023/06/27 10:15:44;;;;;;;6.30;2.70;;;;;;;22.31;50.04;98536.47;137244;1274;22228;-86
2023/06/27 10:18:48;;;;;;;9.60;3.20;;;;;;;22.03;50.77;98538.45;137121;1274;23064;-85
2023/06/27 10:21:51;;;;;;;11.10;2.60;;;;;;;21.86;51.23;98537.15;137267;1274;22592;-84
2023/06/27 10:24:53;;;;;;;9.00;2.80;;;;;;;21.69;52.71;98533.90;137203;1274;22585;-85
2023/06/27 10:27:56;;;;;;;7.20;2.50;;;;;;;21.57;52.08;98536.81;137317;1274;22226;-85
2023/06/27 10:30:59;;;;;;;12.70;2.90;;;;;;;21.22;52.29;98551.17;137323;1274;22602;-84
2023/06/27 10:34:02;;;;;;;9.40;2.40;;;;;;;20.90;52.43;98548.38;137400;1274;22389;-84
2023/06/27 10:37:05;;;;;;;10.20;4.00;;;;;;;20.76;53.04;98548.33;137592;1274;22223;-85
2023/06/27 10:40:09;;;;;;;10.20;2.70;;;;;;;20.81;53.93;98542.14;137571;1273;22268;-84
2023/06/27 10:43:11;;;;;;;14.30;6.50;;;;;;;20.95;52.74;98541.13;137576;1274;22320;-83
2023/06/27 10:46:14;;;;;;;13.90;2.90;;;;;;;20.91;50.14;98541.26;137559;1268;22197;-79
2023/06/27 10:49:17;;;;;;;9.00;2.60;;;;;;;20.94;49.89;98535.14;137461;1274;22552;-85
2023/06/27 10:52:19;;;;;;;5.90;2.30;;;;;;;21.30;49.47;98538.14;137508;1274;22531;-84
2023/06/27 10:55:22;;;;;;;12.30;2.70;;;;;;;21.83;49.58;98524.31;137397;1273;22203;-86
2023/06/27 10:58:26;;;;;;;5.20;2.50;;;;;;;22.36;49.46;98532.33;137321;1274;22830;-84
2023/06/27 11:01:29;;;;;;;11.10;2.70;;;;;;;22.61;48.55;98527.26;137398;1274;22241;-84
2023/06/27 11:04:33;;;;;;;10.20;3.60;;;;;;;22.32;47.42;98536.93;137053;1273;24961;-81
2023/06/27 11:07:36;;;;;;;7.60;2.80;;;;;;;21.98;48.19;98536.70;137388;1274;22234;-84
2023/06/27 11:10:38;;;;;;;4.00;2.10;;;;;;;21.59;48.11;98543.45;137190;1274;22513;-84
2023/06/27 11:13:41;;;;;;;16.40;3.20;;;;;;;21.33;46.77;98542.47;137340;1274;22275;-83
2023/06/27 11:16:45;;;;;;;8.80;2.70;;;;;;;20.98;48.22;98543.52;137370;1274;22326;-83
2023/06/27 11:19:48;;;;;;;11.00;2.60;;;;;;;20.81;48.90;98540.92;137197;1274;22584;-84
2023/06/27 11:22:51;;;;;;;4.80;2.30;;;;;;;20.73;48.43;98537.45;137373;1274;22644;-84
2023/06/27 11:25:53;;;;;;;5.40;2.20;;;;;;;21.15;48.51;98522.20;137339;1274;22324;-85
2023/06/27 11:28:59;;;;;;;4.70;2.20;;;;;;;21.74;48.23;98520.04;137383;1262;22243;-86
2023/06/27 11:32:01;;;;;;;6.70;2.20;;;;;;;22.21;45.91;98514.18;137392;1270;22221;-85
2023/06/27 11:35:04;;;;;;;11.70;2.80;;;;;;;22.51;45.73;98512.05;137368;1274;22459;-83
2023/06/27 11:38:07;;;;;;;7.20;2.40;;;;;;;22.40;44.82;98511.63;137347;1274;22230;-83
2023/06/27 11:41:10;;;;;;;10.90;2.40;;;;;;;22.51;44.95;98506.40;137372;1274;22649;-83
2023/06/27 11:44:12;;;;;;;11.50;2.40;;;;;;;22.35;44.20;98508.64;137333;1274;22325;-84
2023/06/27 11:47:16;;;;;;;5.30;2.20;;;;;;;22.16;44.46;98507.09;137308;1274;22706;-83
2023/06/27 11:50:18;;;;;;;6.00;3.40;;;;;;;22.14;46.17;98497.42;137345;1274;22264;-83
2023/06/27 11:53:21;;;;;;;3.70;2.00;;;;;;;22.70;45.96;98492.98;137341;1274;22241;-85
2023/06/27 11:56:23;;;;;;;5.50;2.50;;;;;;;23.16;44.79;98489.61;137330;1274;22230;-83
2023/06/27 11:59:26;;;;;;;5.30;2.50;;;;;;;23.51;43.61;98483.61;137256;1274;22317;-83
2023/06/27 12:02:28;;;;;;;10.00;2.80;;;;;;;23.64;41.43;98489.93;137283;1274;22255;-83
2023/06/27 12:05:31;;;;;;;13.70;2.60;;;;;;;23.15;39.78;98499.41;137285;1274;22515;-83
2023/06/27 12:08:33;;;;;;;15.40;2.40;;;;;;;22.60;37.01;98494.64;137225;1274;22852;-83
2023/06/27 12:11:37;;;;;;;6.40;2.20;;;;;;;22.24;36.84;98488.16;137228;1268;22220;-82
2023/06/27 12:14:40;;;;;;;7.30;1.80;;;;;;;22.43;36.58;98481.54;137229;1270;22460;-82
2023/06/27 12:17:42;;;;;;;6.60;2.00;;;;;;;22.78;36.28;98476.19;137173;1274;22230;-83
2023/06/27 12:20:45;;;;;;;4.70;2.00;;;;;;;22.84;36.67;98472.38;137238;1274;22315;-84
2023/06/27 12:23:48;;;;;;;11.20;2.40;;;;;;;23.02;37.65;98465.36;137209;1274;22196;-84
2023/06/27 12:26:51;;;;;;;5.20;2.10;;;;;;;23.14;38.10;98463.40;137203;1274;22848;-85
2023/06/27 12:29:53;;;;;;;13.80;2.40;;;;;;;23.30;37.61;98463.23;137289;1274;22229;-82
2023/06/27 12:32:56;;;;;;;8.50;2.10;;;;;;;23.28;37.68;98458.36;137252;1274;22321;-82
2023/06/27 12:35:58;;;;;;;4.60;1.80;;;;;;;23.32;37.45;98454.98;137283;1274;22291;-84
2023/06/27 12:39:01;;;;;;;8.40;2.20;;;;;;;23.25;39.03;98453.86;137325;1274;23076;-81
2023/06/27 12:42:04;;;;;;;3.90;2.10;;;;;;;23.39;38.63;98456.27;137343;1274;22811;-84
2023/06/27 12:45:06;;;;;;;8.70;2.50;;;;;;;23.67;38.40;98447.90;137354;1274;22216;-84
2023/06/27 12:48:11;;;;;;;6.40;2.60;;;;;;;23.86;38.15;98449.29;137352;1274;22243;-84
2023/06/27 12:51:15;;;;;;;7.50;2.40;;;;;;;24.13;37.95;98451.86;137323;1259;22242;-84
2023/06/27 12:54:17;;;;;;;5.70;2.30;;;;;;;23.87;37.36;98448.53;137371;1274;22335;-83
2023/06/27 12:57:20;;;;;;;6.00;2.30;;;;;;;23.95;37.56;98441.02;137353;1273;22974;-83
2023/06/27 13:00:22;;;;;;;10.20;2.40;;;;;;;24.29;36.56;98445.29;137328;1274;22378;-80
2023/06/27 13:03:25;;;;;;;3.40;2.10;;;;;;;24.12;36.24;98439.31;137349;1274;22308;-81
2023/06/27 13:06:27;;;;;;;10.40;2.30;;;;;;;23.61;37.78;98453.67;137351;1274;22251;-80
2023/06/27 13:09:30;;;;;;;4.10;2.20;;;;;;;23.02;38.79;98465.57;137330;1274;22192;-81
2023/06/27 13:12:32;;;;;;;13.50;2.60;;;;;;;22.56;40.46;98457.58;137384;1270;22696;-83
2023/06/27 13:15:35;;;;;;;6.80;2.30;;;;;;;22.36;41.53;98456.48;137352;1274;22389;-84
2023/06/27 13:18:37;;;;;;;8.20;2.50;;;;;;;22.09;42.63;98456.67;137357;1274;22292;-83
2023/06/27 13:21:40;;;;;;;14.90;7.60;;;;;;;22.08;42.86;98462.76;137365;1274;22692;-83
2023/06/27 13:24:43;;;;;;;7.30;2.30;;;;;;;22.32;42.22;98463.90;137389;1274;22192;-83
2023/06/27 13:27:45;;;;;;;7.60;2.00;;;;;;;22.42;40.03;98465.08;137316;1274;22250;-83
2023/06/27 13:30:48;;;;;;;5.70;1.90;;;;;;;22.61;38.75;98451.01;137423;1268;22226;-84
2023/06/27 13:33:51;;;;;;;4.60;2.00;;;;;;;22.98;39.64;98445.17;137336;1274;22208;-83
2023/06/27 13:36:55;;;;;;;5.00;2.00;;;;;;;23.00;39.56;98443.29;137378;1274;22229;-83
2023/06/27 13:39:58;;;;;;;4.00;2.20;;;;;;;22.80;40.26;98446.30;137404;1274;22233;-84
2023/06/27 13:43:01;;;;;;;7.50;2.40;;;;;;;22.49;41.20;98464.80;137410;1273;22392;-84
2023/06/27 13:46:04;;;;;;;4.90;2.40;;;;;;;21.80;41.80;98484.22;137385;1274;22199;-84
2023/06/27 13:49:08;;;;;;;8.60;2.20;;;;;;;21.14;43.23;98478.89;137491;1274;22235;-84
2023/06/27 13:52:11;;;;;;;13.00;2.50;;;;;;;20.82;44.67;98474.17;137406;1274;22961;-82
2023/06/27 13:55:13;;;;;;;13.00;2.20;;;;;;;20.36;43.72;98475.03;137334;1274;22312;-84
2023/06/27 13:58:16;;;;;;;5.80;1.70;;;;;;;20.03;44.07;98479.63;137374;1274;22279;-84
2023/06/27 14:01:19;;;;;;;4.40;2.00;;;;;;;19.79;43.77;98479.31;137379;1274;22237;-84
2023/06/27 14:04:22;;;;;;;3.40;1.70;;;;;;;19.56;44.20;98472.95;137292;1274;22235;-84
2023/06/27 14:07:24;;;;;;;2.10;1.70;;;;;;;19.54;44.42;98464.21;137369;1274;22214;-84